createdAt,value
2022-09-13T00:00:59.818Z,3.63
2022-09-13T00:03:27.545Z,2.92
2022-09-13T00:05:54.285Z,3.40
2022-09-13T00:08:21.425Z,4.30
2022-09-13T00:10:48.833Z,4.22
2022-09-13T00:13:16.850Z,3.05
2022-09-13T00:15:49.180Z,3.00
2022-09-13T00:18:18.006Z,3.28
2022-09-13T00:20:45.424Z,3.25
2022-09-13T00:23:12.640Z,2.80
2022-09-13T00:25:42.144Z,3.20
2022-09-13T00:28:10.943Z,3.33
2022-09-13T00:30:37.617Z,3.20
2022-09-13T00:33:06.409Z,3.20
2022-09-13T00:35:33.066Z,2.88
2022-09-13T00:38:01.222Z,2.88
2022-09-13T00:40:30.535Z,4.72
2022-09-13T00:42:57.445Z,4.63
2022-09-13T00:45:26.767Z,4.68
2022-09-13T00:48:01.010Z,3.28
2022-09-13T00:50:36.106Z,3.20
2022-09-13T00:53:15.647Z,3.28
2022-09-13T00:56:23.881Z,3.08
2022-09-13T00:58:58.941Z,3.08
2022-09-13T01:01:33.097Z,2.72
2022-09-13T01:04:01.392Z,2.90
2022-09-13T01:06:30.765Z,3.33
2022-09-13T01:09:04.510Z,2.65
2022-09-13T01:12:04.458Z,2.42
2022-09-13T01:14:32.745Z,3.75
2022-09-13T01:17:02.057Z,3.30
2022-09-13T01:19:28.733Z,3.85
2022-09-13T01:22:12.592Z,4.00
2022-09-13T01:25:19.134Z,3.08
2022-09-13T01:28:00.817Z,2.67
2022-09-13T01:30:40.974Z,2.47
2022-09-13T01:33:15.703Z,2.67
2022-09-13T01:36:08.943Z,3.38
2022-09-13T01:38:54.469Z,3.30
2022-09-13T01:44:12.879Z,2.35
2022-09-13T01:46:46.806Z,2.70
2022-09-13T01:49:29.064Z,2.90
2022-09-13T01:52:16.141Z,2.70
2022-09-13T01:55:13.990Z,5.95
2022-09-13T01:58:03.336Z,2.20
2022-09-13T02:00:35.520Z,2.60
2022-09-13T02:03:12.585Z,3.65
2022-09-13T02:05:49.409Z,2.60
2022-09-13T02:08:16.459Z,3.00
2022-09-13T02:11:07.367Z,2.53
2022-09-13T02:13:43.701Z,2.53
2022-09-13T02:16:18.153Z,2.28
2022-09-13T02:18:55.158Z,4.10
2022-09-13T02:21:30.548Z,2.30
2022-09-13T02:24:12.313Z,2.78
2022-09-13T02:26:40.511Z,4.10
2022-09-13T02:29:13.268Z,2.08
2022-09-13T02:31:47.237Z,4.60
2022-09-13T02:34:31.577Z,3.60
2022-09-13T02:36:59.226Z,2.97
2022-09-13T02:39:29.199Z,3.28
2022-09-13T02:42:18.384Z,2.97
2022-09-13T02:44:49.792Z,3.05
2022-09-13T02:47:43.582Z,9.20
2022-09-13T02:50:22.295Z,2.10
2022-09-13T02:53:19.606Z,2.75
2022-09-13T02:56:25.321Z,1.95
2022-09-13T02:59:02.083Z,2.35
2022-09-13T03:01:28.844Z,2.50
2022-09-13T03:03:55.554Z,3.33
2022-09-13T03:06:27.577Z,2.85
2022-09-13T03:08:57.880Z,3.20
2022-09-13T03:11:53.434Z,2.90
2022-09-13T03:14:49.294Z,1.98
2022-09-13T03:17:34.499Z,2.85
2022-09-13T03:20:11.841Z,2.17
2022-09-13T03:23:11.546Z,3.92
2022-09-13T03:25:52.234Z,1.98
2022-09-13T03:28:37.332Z,2.17
2022-09-13T03:31:22.798Z,2.97
2022-09-13T03:34:07.340Z,2.60
2022-09-13T03:36:47.205Z,2.25
2022-09-13T03:39:25.224Z,3.10
2022-09-13T03:41:57.774Z,2.78
2022-09-13T03:44:26.199Z,2.42
2022-09-13T03:46:57.840Z,4.30
2022-09-13T03:49:33.764Z,2.38
2022-09-13T03:52:03.110Z,2.58
2022-09-13T03:54:34.377Z,2.97
2022-09-13T03:57:21.251Z,2.67
2022-09-13T03:59:56.142Z,2.10
2022-09-13T04:02:29.653Z,2.80
2022-09-13T04:04:56.347Z,6.50
2022-09-13T04:07:24.757Z,1.90
2022-09-13T04:09:53.660Z,4.32
2022-09-13T04:12:22.953Z,2.45
2022-09-13T04:14:54.518Z,2.60
2022-09-13T04:17:23.033Z,4.85
2022-09-13T04:19:49.740Z,1.83
2022-09-13T04:22:19.493Z,2.83
2022-09-13T04:24:46.376Z,1.98
2022-09-13T04:27:17.707Z,2.45
2022-09-13T04:29:44.313Z,4.32
2022-09-13T04:32:11.397Z,2.85
2022-09-13T04:34:40.503Z,2.50
2022-09-13T04:37:07.241Z,2.80
2022-09-13T04:39:33.894Z,3.67
2022-09-13T04:42:04.989Z,2.55
2022-09-13T04:44:31.601Z,1.77
2022-09-13T04:46:58.242Z,3.70
2022-09-13T04:49:25.595Z,3.22
2022-09-13T04:51:52.373Z,2.92
2022-09-13T04:54:19.094Z,3.00
2022-09-13T04:56:45.762Z,2.67
2022-09-13T04:59:13.041Z,3.65
2022-09-13T05:01:40.339Z,2.25
2022-09-13T05:04:08.013Z,3.25
2022-09-13T05:06:34.676Z,2.40
2022-09-13T05:09:01.561Z,2.28
2022-09-13T05:11:30.985Z,3.53
2022-09-13T05:13:59.814Z,2.20
2022-09-13T05:16:29.137Z,2.95
2022-09-13T05:18:56.073Z,2.35
2022-09-13T05:21:24.101Z,2.33
2022-09-13T05:23:52.047Z,1.95
2022-09-13T05:26:21.117Z,1.98
2022-09-13T05:28:48.109Z,2.42
2022-09-13T05:31:24.778Z,3.13
2022-09-13T05:33:57.110Z,2.10
2022-09-13T05:39:06.528Z,5.53
2022-09-13T05:41:39.072Z,3.05
2022-09-13T05:44:13.154Z,2.10
2022-09-13T05:46:41.300Z,2.80
2022-09-13T05:49:07.960Z,1.50
2022-09-13T05:51:34.637Z,3.10
2022-09-13T05:54:01.324Z,2.22
2022-09-13T05:56:29.957Z,3.25
2022-09-13T05:58:56.766Z,3.20
2022-09-13T06:01:28.582Z,3.22
2022-09-13T06:03:59.127Z,2.05
2022-09-13T06:06:29.319Z,3.47
2022-09-13T06:08:57.478Z,2.00
2022-09-13T06:11:26.148Z,2.65
2022-09-13T06:13:53.144Z,2.25
2022-09-13T06:16:20.918Z,1.77
2022-09-13T06:18:48.772Z,6.28
2022-09-13T06:21:18.531Z,1.90
2022-09-13T06:23:50.961Z,3.08
2022-09-13T06:26:23.202Z,2.08
2022-09-13T06:28:52.081Z,4.47
2022-09-13T06:31:20.498Z,4.00
2022-09-13T06:33:47.461Z,3.83
2022-09-13T06:36:19.141Z,5.18
2022-09-13T06:38:47.509Z,2.90
2022-09-13T06:41:18.545Z,2.22
2022-09-13T06:43:45.679Z,3.03
2022-09-13T06:46:15.265Z,3.20
2022-09-13T06:48:44.055Z,3.70
2022-09-13T06:51:16.910Z,3.05
2022-09-13T06:53:45.177Z,2.25
2022-09-13T06:56:17.000Z,2.28
2022-09-13T06:58:46.011Z,4.88
2022-09-13T07:01:19.578Z,4.45
2022-09-13T07:03:51.493Z,6.88
2022-09-13T07:06:23.686Z,3.30
2022-09-13T07:08:51.799Z,3.58
2022-09-13T07:11:19.996Z,6.95
2022-09-13T07:13:51.289Z,2.65
2022-09-13T07:16:19.167Z,4.05
2022-09-13T07:18:50.745Z,3.50
2022-09-13T07:21:18.154Z,2.50
2022-09-13T07:23:44.774Z,2.55
2022-09-13T07:26:11.483Z,1.73
2022-09-13T07:28:40.418Z,2.65
2022-09-13T07:31:28.967Z,2.33
2022-09-13T07:33:58.456Z,4.07
2022-09-13T07:36:26.810Z,2.55
2022-09-13T07:38:54.137Z,2.35
2022-09-13T07:41:23.173Z,2.95
2022-09-13T07:43:51.611Z,2.20
2022-09-13T07:46:21.275Z,2.22
2022-09-13T07:48:49.581Z,3.28
2022-09-13T07:51:20.642Z,3.60
2022-09-13T07:53:51.493Z,3.08
2022-09-13T07:56:22.371Z,3.25
2022-09-13T07:58:50.834Z,2.65
2022-09-13T08:01:17.468Z,2.55
2022-09-13T08:03:44.664Z,2.72
2022-09-13T08:06:11.381Z,2.35
2022-09-13T08:08:38.037Z,2.60
2022-09-13T08:11:06.370Z,3.88
2022-09-13T08:13:33.985Z,3.35
2022-09-13T08:16:06.150Z,2.70
2022-09-13T08:18:33.132Z,5.05
2022-09-13T08:21:01.404Z,2.80
2022-09-13T08:23:28.198Z,4.00
2022-09-13T08:25:54.891Z,3.05
2022-09-13T08:28:26.852Z,3.78
2022-09-13T08:30:54.527Z,2.97
2022-09-13T08:33:21.362Z,3.95
2022-09-13T08:35:52.539Z,3.42
2022-09-13T08:38:19.860Z,5.25
2022-09-13T08:40:53.611Z,5.13
2022-09-13T08:43:44.337Z,4.00
2022-09-13T08:46:19.641Z,7.32
2022-09-13T08:48:49.584Z,4.32
2022-09-13T08:51:54.424Z,4.57
2022-09-13T08:54:21.388Z,6.13
2022-09-13T08:56:53.253Z,4.32
2022-09-13T08:59:47.552Z,6.43
2022-09-13T09:02:39.139Z,4.18
2022-09-13T09:05:25.238Z,5.35
2022-09-13T09:07:57.002Z,6.63
2022-09-13T09:10:34.846Z,7.93
2022-09-13T09:13:30.451Z,4.93
2022-09-13T09:16:02.662Z,6.40
2022-09-13T09:21:01.605Z,6.03
2022-09-13T09:23:41.456Z,6.50
2022-09-13T09:26:17.765Z,6.40
2022-09-13T09:28:50.843Z,6.45
2022-09-13T09:31:43.172Z,5.78
2022-09-13T09:34:42.431Z,6.38
2022-09-13T09:37:26.476Z,6.10
2022-09-13T09:39:58.222Z,5.82
2022-09-13T09:42:28.917Z,6.10
2022-09-13T09:45:03.388Z,5.25
2022-09-13T09:47:40.454Z,7.70
2022-09-13T09:50:30.850Z,4.97
2022-09-13T09:53:06.925Z,4.32
2022-09-13T09:55:46.213Z,5.50
2022-09-13T09:58:16.737Z,6.55
2022-09-13T10:00:57.150Z,5.50
2022-09-13T10:03:30.016Z,4.97
2022-09-13T10:06:07.058Z,4.57
2022-09-13T10:08:37.166Z,5.30
2022-09-13T10:11:04.948Z,7.10
2022-09-13T10:13:32.481Z,5.72
2022-09-13T10:16:05.946Z,5.43
2022-09-13T10:18:44.863Z,5.82
2022-09-13T10:21:25.104Z,4.22
2022-09-13T10:23:51.936Z,5.27
2022-09-13T10:26:21.677Z,5.75
2022-09-13T10:29:09.622Z,4.20
2022-09-13T10:31:38.782Z,3.78
2022-09-13T10:34:12.849Z,3.65
2022-09-13T10:36:53.167Z,5.47
2022-09-13T10:39:22.503Z,5.43
2022-09-13T10:41:58.135Z,4.13
2022-09-13T10:44:33.269Z,3.92
2022-09-13T10:47:04.472Z,4.57
2022-09-13T10:49:40.433Z,5.00
2022-09-13T10:52:24.904Z,3.47
2022-09-13T10:54:51.570Z,5.90
2022-09-13T10:57:34.565Z,3.35
2022-09-13T11:00:02.002Z,4.05
2022-09-13T11:02:57.076Z,4.10
2022-09-13T11:05:29.666Z,3.15
2022-09-13T11:08:25.901Z,3.97
2022-09-13T11:11:28.782Z,3.80
2022-09-13T11:14:04.582Z,3.90
2022-09-13T11:16:49.705Z,2.95
2022-09-13T11:19:36.420Z,3.38
2022-09-13T11:22:25.113Z,6.68
2022-09-13T11:24:58.058Z,3.25
2022-09-13T11:27:30.556Z,2.80
2022-09-13T11:30:10.715Z,6.78
2022-09-13T11:32:56.386Z,4.63
2022-09-13T11:35:31.991Z,3.90
2022-09-13T11:38:36.861Z,4.68
2022-09-13T11:41:36.655Z,2.50
2022-09-13T11:44:19.351Z,4.00
2022-09-13T11:46:57.921Z,3.58
2022-09-13T11:49:33.617Z,2.75
2022-09-13T11:52:09.261Z,4.80
2022-09-13T11:54:59.357Z,2.38
2022-09-13T11:57:32.624Z,2.67
2022-09-13T12:00:05.688Z,2.85
2022-09-13T12:02:45.056Z,2.42
2022-09-13T12:05:23.927Z,2.35
2022-09-13T12:08:03.065Z,2.35
2022-09-13T12:10:43.061Z,2.30
2022-09-13T12:13:19.370Z,1.70
2022-09-13T12:15:50.972Z,1.90
2022-09-13T12:18:17.653Z,3.70
2022-09-13T12:20:51.697Z,2.10
2022-09-13T12:23:32.113Z,2.63
2022-09-13T12:26:20.161Z,2.20
2022-09-13T12:28:57.924Z,6.75
2022-09-13T12:31:27.879Z,2.35
2022-09-13T12:33:58.438Z,3.40
2022-09-13T12:36:56.335Z,2.13
2022-09-13T12:39:26.487Z,2.05
2022-09-13T12:41:58.678Z,2.58
2022-09-13T12:47:26.530Z,1.92
2022-09-13T12:50:15.916Z,1.90
2022-09-13T12:53:16.753Z,2.33
2022-09-13T12:56:26.019Z,3.45
2022-09-13T12:59:20.286Z,2.90
2022-09-13T13:01:50.131Z,4.20
2022-09-13T13:04:23.085Z,2.70
2022-09-13T13:07:04.869Z,2.95
2022-09-13T13:09:48.163Z,3.53
2022-09-13T13:12:35.615Z,3.42
2022-09-13T13:15:17.685Z,2.75
2022-09-13T13:17:52.981Z,2.88
2022-09-13T13:20:47.019Z,3.45
2022-09-13T13:23:23.585Z,2.42
2022-09-13T13:26:02.033Z,3.13
2022-09-13T13:28:47.478Z,3.25
2022-09-13T13:31:35.348Z,3.47
2022-09-13T13:34:25.977Z,4.20
2022-09-13T13:37:15.621Z,4.35
2022-09-13T13:39:46.341Z,3.60
2022-09-13T13:42:25.492Z,4.07
2022-09-13T13:45:04.873Z,3.60
2022-09-13T13:47:39.553Z,3.40
2022-09-13T13:50:15.757Z,2.55
2022-09-13T13:52:48.629Z,3.40
2022-09-13T13:55:29.905Z,3.78
2022-09-13T13:58:25.765Z,3.30
2022-09-13T14:00:54.292Z,4.10
2022-09-13T14:03:37.178Z,2.58
2022-09-13T14:06:49.984Z,3.28
2022-09-13T14:09:45.975Z,3.20
2022-09-13T14:12:22.394Z,3.53
2022-09-13T14:15:17.509Z,3.05
2022-09-13T14:18:32.669Z,4.00
2022-09-13T14:21:01.411Z,6.30
2022-09-13T14:23:28.450Z,2.63
2022-09-13T14:25:57.840Z,5.30
2022-09-13T14:28:24.786Z,4.45
2022-09-13T14:30:58.770Z,4.18
2022-09-13T14:33:32.221Z,3.08
2022-09-13T14:36:19.079Z,4.60
2022-09-13T14:38:56.893Z,5.68
2022-09-13T14:41:32.635Z,3.65
2022-09-13T14:44:27.802Z,3.35
2022-09-13T14:47:27.629Z,4.47
2022-09-13T14:50:06.797Z,4.70
2022-09-13T14:52:48.408Z,4.50
2022-09-13T14:55:21.533Z,6.22
2022-09-13T14:57:58.334Z,4.50
2022-09-13T15:00:26.130Z,3.60
2022-09-13T15:02:59.899Z,4.65
2022-09-13T15:05:30.838Z,4.03
2022-09-13T15:07:57.529Z,3.35
2022-09-13T15:10:26.940Z,4.10
2022-09-13T15:13:05.502Z,6.00
2022-09-13T15:15:32.083Z,4.75
2022-09-13T15:18:26.077Z,4.57
2022-09-13T15:21:03.712Z,5.32
2022-09-13T15:23:34.657Z,4.45
2022-09-13T15:26:11.176Z,6.25
2022-09-13T15:28:43.948Z,7.93
2022-09-13T15:31:19.331Z,5.88
2022-09-13T15:33:49.390Z,4.93
2022-09-13T15:36:19.284Z,4.82
2022-09-13T15:39:17.464Z,5.32
2022-09-13T15:41:58.962Z,5.60
2022-09-13T15:44:26.937Z,7.67
2022-09-13T15:46:55.973Z,5.82
2022-09-13T15:49:26.398Z,5.78
2022-09-13T15:51:56.233Z,5.90
2022-09-13T15:54:31.534Z,6.28
2022-09-13T15:56:58.934Z,7.15
2022-09-13T15:59:25.596Z,5.95
2022-09-13T16:01:53.110Z,5.70
2022-09-13T16:04:20.241Z,6.50
2022-09-13T16:06:47.093Z,4.30
2022-09-13T16:09:19.122Z,4.32
2022-09-13T16:11:47.057Z,5.85
2022-09-13T16:14:14.791Z,6.53
2022-09-13T16:16:41.600Z,5.70
2022-09-13T16:19:21.141Z,8.05
2022-09-13T16:21:48.719Z,5.03
2022-09-13T16:24:16.598Z,5.22
2022-09-13T16:26:43.656Z,4.72
2022-09-13T16:29:11.807Z,7.97
2022-09-13T16:31:38.528Z,5.78
2022-09-13T16:34:05.717Z,5.90
2022-09-13T16:36:33.922Z,5.22
2022-09-13T16:39:00.890Z,4.47
2022-09-13T16:41:27.594Z,6.85
2022-09-13T16:43:55.316Z,5.97
2022-09-13T16:46:22.162Z,8.23
2022-09-13T16:48:55.908Z,5.10
2022-09-13T16:51:24.004Z,5.72
2022-09-13T16:53:52.262Z,6.00
2022-09-13T16:56:22.264Z,6.35
2022-09-13T16:58:50.504Z,7.28
2022-09-13T17:01:20.333Z,8.25
2022-09-13T17:03:49.132Z,9.07
2022-09-13T17:06:19.440Z,8.02
2022-09-13T17:08:49.968Z,7.18
2022-09-13T17:11:18.556Z,7.78
2022-09-13T17:13:45.484Z,7.88
2022-09-13T17:16:47.447Z,7.63
2022-09-13T17:19:20.698Z,7.75
2022-09-13T17:21:47.792Z,7.38
2022-09-13T17:24:14.877Z,7.00
2022-09-13T17:26:44.938Z,7.05
2022-09-13T17:29:12.464Z,6.95
2022-09-13T17:31:43.117Z,6.45
2022-09-13T17:34:11.158Z,8.52
2022-09-13T17:36:39.542Z,6.78
2022-09-13T17:39:06.822Z,7.30
2022-09-13T17:41:34.034Z,7.22
2022-09-13T17:44:00.689Z,7.60
2022-09-13T17:46:28.946Z,6.88
2022-09-13T17:48:58.197Z,5.97
2022-09-13T17:51:27.262Z,6.88
2022-09-13T17:54:00.212Z,6.90
2022-09-13T17:56:30.190Z,7.68
2022-09-13T17:59:09.323Z,9.55
2022-09-13T18:01:38.231Z,6.63
2022-09-13T18:04:05.220Z,6.25
2022-09-13T18:06:31.956Z,7.80
2022-09-13T18:08:58.747Z,6.72
2022-09-13T18:11:25.367Z,6.72
2022-09-13T18:13:52.446Z,6.38
2022-09-13T18:16:22.015Z,6.10
2022-09-13T18:18:50.760Z,5.50
2022-09-13T18:21:21.546Z,6.45
2022-09-13T18:23:52.722Z,6.65
2022-09-13T18:26:22.948Z,7.28
2022-09-13T18:28:57.940Z,6.68
2022-09-13T18:31:27.744Z,6.32
2022-09-13T18:33:57.317Z,6.45
2022-09-13T18:36:25.650Z,6.55
2022-09-13T18:38:57.607Z,6.78
2022-09-13T18:41:40.278Z,9.18
2022-09-13T18:44:12.781Z,6.03
2022-09-13T18:46:43.786Z,7.45
2022-09-13T18:49:13.361Z,6.25
2022-09-13T18:51:47.933Z,6.38
2022-09-13T18:54:18.416Z,6.10
2022-09-13T18:56:52.911Z,7.32
2022-09-13T18:59:20.500Z,7.70
2022-09-13T19:01:49.997Z,6.35
2022-09-13T19:04:23.574Z,6.65
2022-09-13T19:06:53.314Z,9.90
2022-09-13T19:09:23.449Z,7.68
2022-09-13T19:11:52.320Z,6.22
2022-09-13T19:14:25.205Z,6.53
2022-09-13T19:16:58.490Z,7.78
2022-09-13T19:19:25.704Z,7.32
2022-09-13T19:21:55.068Z,6.53
2022-09-13T19:24:23.545Z,7.03
2022-09-13T19:26:56.973Z,8.35
2022-09-13T19:29:26.619Z,7.10
2022-09-13T19:31:57.234Z,7.43
2022-09-13T19:34:26.733Z,8.25
2022-09-13T19:36:59.589Z,6.20
2022-09-13T19:39:30.778Z,15.57
2022-09-13T19:42:02.674Z,9.05
2022-09-13T19:44:31.746Z,6.93
2022-09-13T19:47:57.484Z,6.85
2022-09-13T19:49:59.691Z,7.35
2022-09-13T19:52:33.503Z,6.32
2022-09-13T19:55:02.872Z,7.25
2022-09-13T19:57:31.670Z,5.88
2022-09-13T20:00:04.508Z,5.72
2022-09-13T20:02:41.225Z,7.50
2022-09-13T20:05:13.955Z,5.63
2022-09-13T20:07:49.408Z,6.07
2022-09-13T20:10:28.130Z,7.55
2022-09-13T20:13:00.513Z,5.07
2022-09-13T20:15:28.683Z,5.18
2022-09-13T20:17:55.554Z,5.80
2022-09-13T20:20:26.021Z,7.15
2022-09-13T20:22:53.817Z,7.70
2022-09-13T20:25:25.665Z,9.07
2022-09-13T20:28:13.309Z,12.98
2022-09-13T20:30:54.722Z,8.07
2022-09-13T20:33:23.851Z,10.10
2022-09-13T20:35:50.959Z,7.55
2022-09-13T20:38:25.389Z,6.45
2022-09-13T20:40:55.301Z,6.40
2022-09-13T20:43:22.177Z,6.50
2022-09-13T20:45:56.777Z,7.28
2022-09-13T20:48:34.173Z,7.18
2022-09-13T20:51:03.745Z,7.15
2022-09-13T20:53:32.882Z,7.65
2022-09-13T20:56:08.335Z,6.88
2022-09-13T20:58:39.352Z,7.25
2022-09-13T21:01:08.832Z,7.25
2022-09-13T21:03:41.933Z,7.90
2022-09-13T21:06:10.078Z,9.05
2022-09-13T21:08:42.731Z,8.63
2022-09-13T21:11:16.948Z,7.65
2022-09-13T21:13:52.480Z,9.18
2022-09-13T21:16:23.292Z,7.90
2022-09-13T21:18:51.201Z,7.70
2022-09-13T21:21:20.293Z,8.55
2022-09-13T21:23:50.621Z,5.88
2022-09-13T21:26:20.254Z,3.03
2022-09-13T21:28:47.724Z,4.25
2022-09-13T21:31:22.490Z,3.15
2022-09-13T21:33:55.315Z,3.15
2022-09-13T21:36:25.047Z,3.45
2022-09-13T21:38:54.152Z,2.35
2022-09-13T21:41:26.935Z,3.33
2022-09-13T21:43:54.120Z,2.30
2022-09-13T21:46:24.166Z,4.63
2022-09-13T21:49:03.722Z,3.92
2022-09-13T21:51:37.640Z,2.55
2022-09-13T21:54:07.270Z,2.00
2022-09-13T21:56:38.176Z,3.65
2022-09-13T21:59:14.288Z,3.53
2022-09-13T22:01:43.109Z,4.18
2022-09-13T22:04:16.941Z,4.03
2022-09-13T22:06:46.255Z,1.60
2022-09-13T22:09:14.112Z,2.58
2022-09-13T22:11:43.660Z,2.05
2022-09-13T22:14:13.246Z,1.50
2022-09-13T22:16:46.346Z,1.58
2022-09-13T22:19:37.703Z,1.70
2022-09-13T22:22:11.546Z,2.28
2022-09-13T22:24:45.970Z,2.05
2022-09-13T22:27:14.624Z,3.08
2022-09-13T22:29:41.705Z,1.70
2022-09-13T22:32:11.017Z,1.65
2022-09-13T22:34:38.894Z,3.70
2022-09-13T22:37:07.972Z,1.50
2022-09-13T22:39:35.576Z,3.03
2022-09-13T22:42:05.073Z,2.08
2022-09-13T22:44:38.206Z,3.05
2022-09-13T22:47:04.930Z,2.28
2022-09-13T22:49:33.563Z,1.48
2022-09-13T22:52:00.116Z,2.13
2022-09-13T22:54:30.744Z,2.33
2022-09-13T22:57:00.789Z,1.52
2022-09-13T22:59:32.408Z,2.67
2022-09-13T23:02:02.406Z,2.33
2022-09-13T23:04:34.065Z,1.80
2022-09-13T23:07:00.681Z,3.85
2022-09-13T23:09:27.354Z,2.95
2022-09-13T23:11:56.243Z,2.75
2022-09-13T23:14:22.844Z,4.32
2022-09-13T23:16:51.587Z,2.30
2022-09-13T23:19:22.827Z,2.15
2022-09-13T23:21:56.871Z,2.85
2022-09-13T23:24:28.138Z,3.05
2022-09-13T23:26:55.909Z,2.38
2022-09-13T23:29:23.180Z,2.17
2022-09-13T23:31:50.488Z,2.00
2022-09-13T23:34:17.681Z,1.38
2022-09-13T23:36:47.721Z,3.22
2022-09-13T23:39:17.640Z,2.22
2022-09-13T23:41:47.505Z,4.32
2022-09-13T23:44:19.104Z,3.10
2022-09-13T23:46:54.943Z,3.08
2022-09-13T23:49:24.683Z,2.45
2022-09-13T23:51:53.259Z,2.33
2022-09-13T23:54:19.833Z,1.50
2022-09-13T23:56:47.394Z,1.52
2022-09-13T23:59:20.076Z,2.70
